sensor_id;sensor_type;location;lat;lon;timestamp;P1;durP1;ratioP1;P2;durP2;ratioP2
29824;SDS011;16713;52.916;12.834;2023-04-25T00:01:35;7.68;;;2.97;;
29824;SDS011;16713;52.916;12.834;2023-04-25T00:04:02;4.05;;;2.95;;
29824;SDS011;16713;52.916;12.834;2023-04-25T00:06:29;5.93;;;2.33;;
29824;SDS011;16713;52.916;12.834;2023-04-25T00:08:55;7.35;;;2.47;;
29824;SDS011;16713;52.916;12.834;2023-04-25T00:11:23;7.93;;;3.15;;
29824;SDS011;16713;52.916;12.834;2023-04-25T00:13:50;6.90;;;2.88;;
29824;SDS011;16713;52.916;12.834;2023-04-25T00:16:20;6.38;;;2.95;;
29824;SDS011;16713;52.916;12.834;2023-04-25T00:18:47;8.77;;;2.90;;
29824;SDS011;16713;52.916;12.834;2023-04-25T00:21:18;3.55;;;2.60;;
29824;SDS011;16713;52.916;12.834;2023-04-25T00:23:46;6.40;;;2.80;;
29824;SDS011;16713;52.916;12.834;2023-04-25T00:26:13;8.27;;;2.47;;
29824;SDS011;16713;52.916;12.834;2023-04-25T00:28:39;5.32;;;2.83;;
29824;SDS011;16713;52.916;12.834;2023-04-25T00:31:06;4.88;;;2.67;;
29824;SDS011;16713;52.916;12.834;2023-04-25T00:33:33;4.32;;;2.60;;
29824;SDS011;16713;52.916;12.834;2023-04-25T00:36:00;8.25;;;3.50;;
29824;SDS011;16713;52.916;12.834;2023-04-25T00:38:26;8.38;;;2.88;;
29824;SDS011;16713;52.916;12.834;2023-04-25T00:40:53;9.65;;;2.83;;
29824;SDS011;16713;52.916;12.834;2023-04-25T00:43:21;5.60;;;3.13;;
29824;SDS011;16713;52.916;12.834;2023-04-25T00:45:48;6.93;;;2.50;;
29824;SDS011;16713;52.916;12.834;2023-04-25T00:48:16;7.63;;;2.92;;
29824;SDS011;16713;52.916;12.834;2023-04-25T00:50:47;8.23;;;3.15;;
29824;SDS011;16713;52.916;12.834;2023-04-25T00:53:18;7.88;;;3.00;;
29824;SDS011;16713;52.916;12.834;2023-04-25T00:55:44;7.05;;;3.40;;
29824;SDS011;16713;52.916;12.834;2023-04-25T00:58:11;9.10;;;3.20;;
29824;SDS011;16713;52.916;12.834;2023-04-25T01:00:37;5.47;;;3.67;;
29824;SDS011;16713;52.916;12.834;2023-04-25T01:03:06;5.88;;;2.70;;
29824;SDS011;16713;52.916;12.834;2023-04-25T01:05:33;10.40;;;4.25;;
29824;SDS011;16713;52.916;12.834;2023-04-25T01:07:59;9.77;;;3.65;;
29824;SDS011;16713;52.916;12.834;2023-04-25T01:10:26;10.20;;;4.28;;
29824;SDS011;16713;52.916;12.834;2023-04-25T01:12:52;8.20;;;3.50;;
29824;SDS011;16713;52.916;12.834;2023-04-25T01:15:19;11.05;;;4.07;;
29824;SDS011;16713;52.916;12.834;2023-04-25T01:17:46;9.65;;;3.85;;
29824;SDS011;16713;52.916;12.834;2023-04-25T01:20:13;12.02;;;4.05;;
29824;SDS011;16713;52.916;12.834;2023-04-25T01:22:40;10.32;;;4.30;;
29824;SDS011;16713;52.916;12.834;2023-04-25T01:25:06;7.63;;;3.67;;
29824;SDS011;16713;52.916;12.834;2023-04-25T01:27:33;5.72;;;3.60;;
29824;SDS011;16713;52.916;12.834;2023-04-25T01:30:01;16.83;;;4.65;;
29824;SDS011;16713;52.916;12.834;2023-04-25T01:32:29;11.18;;;4.07;;
29824;SDS011;16713;52.916;12.834;2023-04-25T01:35:04;8.52;;;4.45;;
29824;SDS011;16713;52.916;12.834;2023-04-25T01:37:39;10.90;;;4.32;;
29824;SDS011;16713;52.916;12.834;2023-04-25T01:40:06;10.27;;;3.90;;
29824;SDS011;16713;52.916;12.834;2023-04-25T01:42:35;11.15;;;4.03;;
29824;SDS011;16713;52.916;12.834;2023-04-25T01:45:03;8.43;;;4.55;;
29824;SDS011;16713;52.916;12.834;2023-04-25T01:47:30;11.35;;;4.20;;
29824;SDS011;16713;52.916;12.834;2023-04-25T01:49:58;10.23;;;3.80;;
29824;SDS011;16713;52.916;12.834;2023-04-25T01:52:24;9.15;;;4.43;;
29824;SDS011;16713;52.916;12.834;2023-04-25T01:54:51;8.25;;;4.10;;
29824;SDS011;16713;52.916;12.834;2023-04-25T01:57:18;12.60;;;5.68;;
29824;SDS011;16713;52.916;12.834;2023-04-25T01:59:45;11.55;;;4.57;;
29824;SDS011;16713;52.916;12.834;2023-04-25T02:02:12;8.50;;;4.32;;
29824;SDS011;16713;52.916;12.834;2023-04-25T02:04:39;6.97;;;4.00;;
29824;SDS011;16713;52.916;12.834;2023-04-25T02:07:05;10.77;;;4.85;;
29824;SDS011;16713;52.916;12.834;2023-04-25T02:09:32;7.18;;;3.53;;
29824;SDS011;16713;52.916;12.834;2023-04-25T02:11:58;11.93;;;3.95;;
29824;SDS011;16713;52.916;12.834;2023-04-25T02:14:25;8.30;;;4.00;;
29824;SDS011;16713;52.916;12.834;2023-04-25T02:16:52;7.68;;;4.20;;
29824;SDS011;16713;52.916;12.834;2023-04-25T02:19:18;9.45;;;4.40;;
29824;SDS011;16713;52.916;12.834;2023-04-25T02:21:45;12.18;;;4.20;;
29824;SDS011;16713;52.916;12.834;2023-04-25T02:24:11;11.15;;;5.07;;
29824;SDS011;16713;52.916;12.834;2023-04-25T02:26:38;8.43;;;4.00;;
29824;SDS011;16713;52.916;12.834;2023-04-25T02:29:04;11.88;;;4.75;;
29824;SDS011;16713;52.916;12.834;2023-04-25T02:31:31;10.25;;;4.10;;
29824;SDS011;16713;52.916;12.834;2023-04-25T02:33:58;10.10;;;4.03;;
29824;SDS011;16713;52.916;12.834;2023-04-25T02:36:24;10.18;;;4.25;;
29824;SDS011;16713;52.916;12.834;2023-04-25T02:38:52;10.52;;;4.05;;
29824;SDS011;16713;52.916;12.834;2023-04-25T02:41:18;10.02;;;3.90;;
29824;SDS011;16713;52.916;12.834;2023-04-25T02:43:46;10.05;;;4.57;;
29824;SDS011;16713;52.916;12.834;2023-04-25T02:46:14;10.68;;;4.10;;
29824;SDS011;16713;52.916;12.834;2023-04-25T02:48:44;10.38;;;4.78;;
29824;SDS011;16713;52.916;12.834;2023-04-25T02:51:10;9.98;;;4.25;;
29824;SDS011;16713;52.916;12.834;2023-04-25T02:53:37;9.13;;;4.35;;
29824;SDS011;16713;52.916;12.834;2023-04-25T02:56:03;10.25;;;3.95;;
29824;SDS011;16713;52.916;12.834;2023-04-25T02:58:30;8.07;;;4.10;;
29824;SDS011;16713;52.916;12.834;2023-04-25T03:00:57;9.23;;;3.78;;
29824;SDS011;16713;52.916;12.834;2023-04-25T03:03:23;9.50;;;4.68;;
29824;SDS011;16713;52.916;12.834;2023-04-25T03:05:50;9.93;;;4.20;;
29824;SDS011;16713;52.916;12.834;2023-04-25T03:08:17;12.70;;;4.40;;
29824;SDS011;16713;52.916;12.834;2023-04-25T03:10:45;10.52;;;4.20;;
29824;SDS011;16713;52.916;12.834;2023-04-25T03:13:11;10.02;;;4.30;;
29824;SDS011;16713;52.916;12.834;2023-04-25T03:15:38;10.10;;;4.72;;
29824;SDS011;16713;52.916;12.834;2023-04-25T03:18:05;12.88;;;4.90;;
29824;SDS011;16713;52.916;12.834;2023-04-25T03:20:31;7.53;;;4.38;;
29824;SDS011;16713;52.916;12.834;2023-04-25T03:22:58;14.25;;;4.47;;
29824;SDS011;16713;52.916;12.834;2023-04-25T03:25:24;7.90;;;4.28;;
29824;SDS011;16713;52.916;12.834;2023-04-25T03:27:51;8.55;;;4.05;;
29824;SDS011;16713;52.916;12.834;2023-04-25T03:30:18;12.00;;;4.63;;
29824;SDS011;16713;52.916;12.834;2023-04-25T03:32:44;7.57;;;4.47;;
29824;SDS011;16713;52.916;12.834;2023-04-25T03:35:11;12.45;;;5.28;;
29824;SDS011;16713;52.916;12.834;2023-04-25T03:37:37;8.20;;;4.68;;
29824;SDS011;16713;52.916;12.834;2023-04-25T03:40:04;11.70;;;5.28;;
29824;SDS011;16713;52.916;12.834;2023-04-25T03:42:31;10.10;;;4.60;;
29824;SDS011;16713;52.916;12.834;2023-04-25T03:44:57;12.30;;;4.95;;
29824;SDS011;16713;52.916;12.834;2023-04-25T03:47:23;13.48;;;4.18;;
29824;SDS011;16713;52.916;12.834;2023-04-25T03:49:50;13.13;;;4.55;;
29824;SDS011;16713;52.916;12.834;2023-04-25T03:52:18;11.30;;;4.18;;
29824;SDS011;16713;52.916;12.834;2023-04-25T03:54:44;12.27;;;4.55;;
29824;SDS011;16713;52.916;12.834;2023-04-25T03:57:11;10.15;;;3.67;;
29824;SDS011;16713;52.916;12.834;2023-04-25T03:59:37;9.75;;;3.92;;
29824;SDS011;16713;52.916;12.834;2023-04-25T04:02:03;8.20;;;3.90;;
29824;SDS011;16713;52.916;12.834;2023-04-25T04:04:30;6.65;;;3.80;;
29824;SDS011;16713;52.916;12.834;2023-04-25T04:06:57;9.25;;;3.88;;
29824;SDS011;16713;52.916;12.834;2023-04-25T04:09:23;10.13;;;4.25;;
29824;SDS011;16713;52.916;12.834;2023-04-25T04:11:50;7.47;;;4.00;;
29824;SDS011;16713;52.916;12.834;2023-04-25T04:14:16;8.93;;;4.07;;
29824;SDS011;16713;52.916;12.834;2023-04-25T04:16:43;10.00;;;3.67;;
29824;SDS011;16713;52.916;12.834;2023-04-25T04:19:09;9.95;;;4.22;;
29824;SDS011;16713;52.916;12.834;2023-04-25T04:21:35;5.72;;;3.75;;
29824;SDS011;16713;52.916;12.834;2023-04-25T04:24:02;8.90;;;3.58;;
29824;SDS011;16713;52.916;12.834;2023-04-25T04:26:29;9.35;;;5.15;;
29824;SDS011;16713;52.916;12.834;2023-04-25T04:28:58;6.05;;;3.35;;
29824;SDS011;16713;52.916;12.834;2023-04-25T04:31:25;5.90;;;4.18;;
29824;SDS011;16713;52.916;12.834;2023-04-25T04:33:51;9.90;;;4.35;;
29824;SDS011;16713;52.916;12.834;2023-04-25T04:36:18;8.82;;;3.72;;
29824;SDS011;16713;52.916;12.834;2023-04-25T04:38:49;7.85;;;3.90;;
29824;SDS011;16713;52.916;12.834;2023-04-25T04:41:15;9.02;;;4.45;;
29824;SDS011;16713;52.916;12.834;2023-04-25T04:43:42;12.02;;;3.78;;
29824;SDS011;16713;52.916;12.834;2023-04-25T04:46:09;8.55;;;3.67;;
29824;SDS011;16713;52.916;12.834;2023-04-25T04:48:36;14.57;;;4.03;;
29824;SDS011;16713;52.916;12.834;2023-04-25T04:51:03;8.85;;;3.72;;
29824;SDS011;16713;52.916;12.834;2023-04-25T04:53:29;11.93;;;4.18;;
29824;SDS011;16713;52.916;12.834;2023-04-25T04:55:56;6.43;;;4.30;;
29824;SDS011;16713;52.916;12.834;2023-04-25T04:58:22;11.15;;;5.13;;
29824;SDS011;16713;52.916;12.834;2023-04-25T05:00:49;13.40;;;4.57;;
29824;SDS011;16713;52.916;12.834;2023-04-25T05:03:15;9.88;;;4.80;;
29824;SDS011;16713;52.916;12.834;2023-04-25T05:05:42;11.27;;;4.72;;
29824;SDS011;16713;52.916;12.834;2023-04-25T05:08:09;10.77;;;4.68;;
29824;SDS011;16713;52.916;12.834;2023-04-25T05:10:35;16.73;;;5.57;;
29824;SDS011;16713;52.916;12.834;2023-04-25T05:13:02;8.77;;;4.00;;
29824;SDS011;16713;52.916;12.834;2023-04-25T05:15:28;14.88;;;4.72;;
29824;SDS011;16713;52.916;12.834;2023-04-25T05:17:55;6.45;;;4.38;;
29824;SDS011;16713;52.916;12.834;2023-04-25T05:20:22;12.18;;;4.57;;
29824;SDS011;16713;52.916;12.834;2023-04-25T05:22:49;9.68;;;5.18;;
29824;SDS011;16713;52.916;12.834;2023-04-25T05:25:15;9.65;;;4.93;;
29824;SDS011;16713;52.916;12.834;2023-04-25T05:27:42;14.55;;;5.75;;
29824;SDS011;16713;52.916;12.834;2023-04-25T05:30:08;10.07;;;5.13;;
29824;SDS011;16713;52.916;12.834;2023-04-25T05:32:35;16.67;;;6.22;;
29824;SDS011;16713;52.916;12.834;2023-04-25T05:35:02;10.48;;;4.68;;
29824;SDS011;16713;52.916;12.834;2023-04-25T05:37:29;12.90;;;5.28;;
29824;SDS011;16713;52.916;12.834;2023-04-25T05:39:57;9.98;;;4.63;;
29824;SDS011;16713;52.916;12.834;2023-04-25T05:42:23;9.50;;;5.05;;
29824;SDS011;16713;52.916;12.834;2023-04-25T05:44:50;13.52;;;4.97;;
29824;SDS011;16713;52.916;12.834;2023-04-25T05:47:16;11.43;;;4.85;;
29824;SDS011;16713;52.916;12.834;2023-04-25T05:49:43;7.45;;;5.28;;
29824;SDS011;16713;52.916;12.834;2023-04-25T05:52:09;10.30;;;4.32;;
29824;SDS011;16713;52.916;12.834;2023-04-25T05:54:35;14.50;;;4.40;;
29824;SDS011;16713;52.916;12.834;2023-04-25T05:57:02;10.65;;;5.00;;
29824;SDS011;16713;52.916;12.834;2023-04-25T05:59:28;11.48;;;4.70;;
29824;SDS011;16713;52.916;12.834;2023-04-25T06:01:55;14.95;;;5.40;;
29824;SDS011;16713;52.916;12.834;2023-04-25T06:04:21;12.00;;;5.10;;
29824;SDS011;16713;52.916;12.834;2023-04-25T06:06:48;12.80;;;4.63;;
29824;SDS011;16713;52.916;12.834;2023-04-25T06:09:15;17.33;;;4.20;;
29824;SDS011;16713;52.916;12.834;2023-04-25T06:11:41;15.13;;;4.43;;
29824;SDS011;16713;52.916;12.834;2023-04-25T06:14:08;12.07;;;4.80;;
29824;SDS011;16713;52.916;12.834;2023-04-25T06:16:34;18.10;;;5.50;;
29824;SDS011;16713;52.916;12.834;2023-04-25T06:19:01;20.80;;;5.85;;
29824;SDS011;16713;52.916;12.834;2023-04-25T06:21:27;14.93;;;5.40;;
29824;SDS011;16713;52.916;12.834;2023-04-25T06:23:54;15.00;;;5.63;;
29824;SDS011;16713;52.916;12.834;2023-04-25T06:26:20;17.33;;;5.55;;
29824;SDS011;16713;52.916;12.834;2023-04-25T06:28:46;18.38;;;5.28;;
29824;SDS011;16713;52.916;12.834;2023-04-25T06:31:13;26.35;;;5.47;;
29824;SDS011;16713;52.916;12.834;2023-04-25T06:33:39;21.10;;;5.00;;
29824;SDS011;16713;52.916;12.834;2023-04-25T06:36:06;31.42;;;6.00;;
29824;SDS011;16713;52.916;12.834;2023-04-25T06:38:33;20.70;;;4.63;;
29824;SDS011;16713;52.916;12.834;2023-04-25T06:41:00;22.58;;;4.60;;
29824;SDS011;16713;52.916;12.834;2023-04-25T06:43:27;29.00;;;6.63;;
29824;SDS011;16713;52.916;12.834;2023-04-25T06:45:53;26.13;;;4.85;;
29824;SDS011;16713;52.916;12.834;2023-04-25T06:48:20;21.60;;;4.65;;
29824;SDS011;16713;52.916;12.834;2023-04-25T06:50:46;17.77;;;5.80;;
29824;SDS011;16713;52.916;12.834;2023-04-25T06:53:13;21.17;;;5.10;;
29824;SDS011;16713;52.916;12.834;2023-04-25T06:55:39;24.00;;;5.47;;
29824;SDS011;16713;52.916;12.834;2023-04-25T06:58:06;22.55;;;5.45;;
29824;SDS011;16713;52.916;12.834;2023-04-25T07:00:33;21.85;;;5.15;;
29824;SDS011;16713;52.916;12.834;2023-04-25T07:02:59;15.20;;;4.28;;
29824;SDS011;16713;52.916;12.834;2023-04-25T07:05:26;18.70;;;4.97;;
29824;SDS011;16713;52.916;12.834;2023-04-25T07:07:53;25.65;;;6.13;;
29824;SDS011;16713;52.916;12.834;2023-04-25T07:10:19;28.33;;;6.82;;
29824;SDS011;16713;52.916;12.834;2023-04-25T07:12:47;26.20;;;5.68;;
29824;SDS011;16713;52.916;12.834;2023-04-25T07:15:13;23.65;;;4.72;;
29824;SDS011;16713;52.916;12.834;2023-04-25T07:17:40;24.90;;;5.30;;
29824;SDS011;16713;52.916;12.834;2023-04-25T07:20:07;21.05;;;4.85;;
29824;SDS011;16713;52.916;12.834;2023-04-25T07:22:35;22.55;;;5.63;;
29824;SDS011;16713;52.916;12.834;2023-04-25T07:25:01;19.23;;;4.43;;
29824;SDS011;16713;52.916;12.834;2023-04-25T07:27:28;21.55;;;4.05;;
29824;SDS011;16713;52.916;12.834;2023-04-25T07:29:55;23.83;;;5.47;;
29824;SDS011;16713;52.916;12.834;2023-04-25T07:32:22;15.10;;;4.68;;
29824;SDS011;16713;52.916;12.834;2023-04-25T07:34:49;20.02;;;5.10;;
29824;SDS011;16713;52.916;12.834;2023-04-25T07:37:17;24.27;;;5.45;;
29824;SDS011;16713;52.916;12.834;2023-04-25T07:39:44;17.42;;;5.43;;
29824;SDS011;16713;52.916;12.834;2023-04-25T07:42:14;13.32;;;4.57;;
29824;SDS011;16713;52.916;12.834;2023-04-25T07:44:41;21.92;;;5.93;;
29824;SDS011;16713;52.916;12.834;2023-04-25T07:47:08;18.55;;;5.68;;
29824;SDS011;16713;52.916;12.834;2023-04-25T07:49:35;21.90;;;5.50;;
29824;SDS011;16713;52.916;12.834;2023-04-25T07:52:03;22.05;;;5.80;;
29824;SDS011;16713;52.916;12.834;2023-04-25T07:54:32;19.10;;;5.70;;
29824;SDS011;16713;52.916;12.834;2023-04-25T07:56:58;21.67;;;5.03;;
29824;SDS011;16713;52.916;12.834;2023-04-25T07:59:25;26.55;;;4.80;;
29824;SDS011;16713;52.916;12.834;2023-04-25T08:01:55;18.15;;;4.72;;
29824;SDS011;16713;52.916;12.834;2023-04-25T08:04:23;15.32;;;3.70;;
29824;SDS011;16713;52.916;12.834;2023-04-25T08:06:50;18.90;;;4.25;;
29824;SDS011;16713;52.916;12.834;2023-04-25T08:09:16;14.95;;;4.22;;
29824;SDS011;16713;52.916;12.834;2023-04-25T08:11:43;14.25;;;3.35;;
29824;SDS011;16713;52.916;12.834;2023-04-25T08:14:10;13.13;;;3.85;;
29824;SDS011;16713;52.916;12.834;2023-04-25T08:16:37;15.10;;;3.90;;
29824;SDS011;16713;52.916;12.834;2023-04-25T08:19:04;16.27;;;4.47;;
29824;SDS011;16713;52.916;12.834;2023-04-25T08:21:31;12.13;;;3.22;;
29824;SDS011;16713;52.916;12.834;2023-04-25T08:23:57;12.15;;;3.30;;
29824;SDS011;16713;52.916;12.834;2023-04-25T08:26:24;19.67;;;3.90;;
29824;SDS011;16713;52.916;12.834;2023-04-25T08:28:51;10.93;;;3.08;;
29824;SDS011;16713;52.916;12.834;2023-04-25T08:31:18;18.40;;;4.88;;
29824;SDS011;16713;52.916;12.834;2023-04-25T08:33:45;25.55;;;4.55;;
29824;SDS011;16713;52.916;12.834;2023-04-25T08:36:11;15.82;;;3.42;;
29824;SDS011;16713;52.916;12.834;2023-04-25T08:38:39;12.00;;;3.50;;
29824;SDS011;16713;52.916;12.834;2023-04-25T08:41:06;13.85;;;2.83;;
29824;SDS011;16713;52.916;12.834;2023-04-25T08:43:33;14.80;;;3.10;;
29824;SDS011;16713;52.916;12.834;2023-04-25T08:46:01;12.05;;;2.92;;
29824;SDS011;16713;52.916;12.834;2023-04-25T08:48:28;15.00;;;2.67;;
29824;SDS011;16713;52.916;12.834;2023-04-25T08:50:55;13.20;;;2.90;;
29824;SDS011;16713;52.916;12.834;2023-04-25T08:53:26;18.70;;;4.78;;
29824;SDS011;16713;52.916;12.834;2023-04-25T08:55:57;17.98;;;3.45;;
29824;SDS011;16713;52.916;12.834;2023-04-25T08:58:25;11.55;;;3.10;;
29824;SDS011;16713;52.916;12.834;2023-04-25T09:00:53;12.50;;;2.97;;
29824;SDS011;16713;52.916;12.834;2023-04-25T09:03:19;8.88;;;2.95;;
29824;SDS011;16713;52.916;12.834;2023-04-25T09:05:47;15.23;;;3.05;;
29824;SDS011;16713;52.916;12.834;2023-04-25T09:08:13;16.30;;;3.15;;
29824;SDS011;16713;52.916;12.834;2023-04-25T09:10:39;15.55;;;3.22;;
29824;SDS011;16713;52.916;12.834;2023-04-25T09:13:10;10.27;;;2.88;;
29824;SDS011;16713;52.916;12.834;2023-04-25T09:15:48;16.48;;;4.68;;
29824;SDS011;16713;52.916;12.834;2023-04-25T09:18:24;18.30;;;3.20;;
29824;SDS011;16713;52.916;12.834;2023-04-25T09:20:56;16.00;;;2.60;;
29824;SDS011;16713;52.916;12.834;2023-04-25T09:23:40;12.02;;;2.75;;
29824;SDS011;16713;52.916;12.834;2023-04-25T09:26:08;9.30;;;2.58;;
29824;SDS011;16713;52.916;12.834;2023-04-25T09:28:35;11.85;;;2.65;;
29824;SDS011;16713;52.916;12.834;2023-04-25T09:31:03;16.90;;;3.58;;
29824;SDS011;16713;52.916;12.834;2023-04-25T09:33:31;12.13;;;2.83;;
29824;SDS011;16713;52.916;12.834;2023-04-25T09:36:02;17.02;;;3.13;;
29824;SDS011;16713;52.916;12.834;2023-04-25T09:38:29;17.88;;;4.07;;
29824;SDS011;16713;52.916;12.834;2023-04-25T09:40:57;11.20;;;2.45;;
29824;SDS011;16713;52.916;12.834;2023-04-25T09:43:24;9.73;;;2.67;;
29824;SDS011;16713;52.916;12.834;2023-04-25T09:45:53;13.77;;;2.65;;
29824;SDS011;16713;52.916;12.834;2023-04-25T09:48:24;9.88;;;2.25;;
29824;SDS011;16713;52.916;12.834;2023-04-25T09:51:08;7.88;;;2.20;;
29824;SDS011;16713;52.916;12.834;2023-04-25T09:53:40;12.95;;;2.97;;
29824;SDS011;16713;52.916;12.834;2023-04-25T09:56:09;10.90;;;2.20;;
29824;SDS011;16713;52.916;12.834;2023-04-25T09:58:37;10.63;;;2.40;;
29824;SDS011;16713;52.916;12.834;2023-04-25T10:01:06;5.63;;;2.45;;
29824;SDS011;16713;52.916;12.834;2023-04-25T10:03:34;6.85;;;1.85;;
29824;SDS011;16713;52.916;12.834;2023-04-25T10:06:12;7.20;;;1.95;;
29824;SDS011;16713;52.916;12.834;2023-04-25T10:08:40;8.90;;;2.28;;
29824;SDS011;16713;52.916;12.834;2023-04-25T10:11:08;3.60;;;1.73;;
29824;SDS011;16713;52.916;12.834;2023-04-25T10:13:35;11.43;;;2.30;;
29824;SDS011;16713;52.916;12.834;2023-04-25T10:16:03;9.55;;;3.05;;
29824;SDS011;16713;52.916;12.834;2023-04-25T10:18:31;9.00;;;2.83;;
29824;SDS011;16713;52.916;12.834;2023-04-25T10:21:00;11.00;;;2.25;;
29824;SDS011;16713;52.916;12.834;2023-04-25T10:23:29;8.60;;;2.40;;
29824;SDS011;16713;52.916;12.834;2023-04-25T10:25:57;7.10;;;1.80;;
29824;SDS011;16713;52.916;12.834;2023-04-25T10:28:24;10.02;;;2.38;;
29824;SDS011;16713;52.916;12.834;2023-04-25T10:33:37;9.95;;;2.25;;
29824;SDS011;16713;52.916;12.834;2023-04-25T10:36:10;7.45;;;2.28;;
29824;SDS011;16713;52.916;12.834;2023-04-25T10:38:38;8.38;;;2.35;;
29824;SDS011;16713;52.916;12.834;2023-04-25T10:41:06;11.70;;;2.03;;
29824;SDS011;16713;52.916;12.834;2023-04-25T10:43:44;17.75;;;2.70;;
29824;SDS011;16713;52.916;12.834;2023-04-25T10:48:47;6.43;;;2.42;;
29824;SDS011;16713;52.916;12.834;2023-04-25T10:51:20;8.65;;;2.20;;
29824;SDS011;16713;52.916;12.834;2023-04-25T10:54:07;9.52;;;2.20;;
29824;SDS011;16713;52.916;12.834;2023-04-25T10:59:14;13.00;;;3.35;;
29824;SDS011;16713;52.916;12.834;2023-04-25T11:01:42;9.35;;;2.50;;
29824;SDS011;16713;52.916;12.834;2023-04-25T11:04:29;8.18;;;2.55;;
29824;SDS011;16713;52.916;12.834;2023-04-25T11:09:33;13.43;;;3.03;;
29824;SDS011;16713;52.916;12.834;2023-04-25T11:12:00;13.45;;;3.05;;
29824;SDS011;16713;52.916;12.834;2023-04-25T11:14:27;7.75;;;3.05;;
29824;SDS011;16713;52.916;12.834;2023-04-25T11:16:57;11.43;;;2.25;;
29824;SDS011;16713;52.916;12.834;2023-04-25T11:19:26;10.43;;;2.65;;
29824;SDS011;16713;52.916;12.834;2023-04-25T11:21:56;7.65;;;2.20;;
29824;SDS011;16713;52.916;12.834;2023-04-25T11:24:27;7.03;;;2.17;;
29824;SDS011;16713;52.916;12.834;2023-04-25T11:26:54;12.02;;;2.55;;
29824;SDS011;16713;52.916;12.834;2023-04-25T11:29:27;10.80;;;2.40;;
29824;SDS011;16713;52.916;12.834;2023-04-25T11:31:55;12.05;;;2.78;;
29824;SDS011;16713;52.916;12.834;2023-04-25T11:34:24;12.23;;;2.63;;
29824;SDS011;16713;52.916;12.834;2023-04-25T11:36:52;10.00;;;2.63;;
29824;SDS011;16713;52.916;12.834;2023-04-25T11:39:19;12.57;;;3.00;;
29824;SDS011;16713;52.916;12.834;2023-04-25T11:41:46;10.48;;;2.80;;
29824;SDS011;16713;52.916;12.834;2023-04-25T11:44:17;15.20;;;3.08;;
29824;SDS011;16713;52.916;12.834;2023-04-25T11:46:44;10.80;;;2.15;;
29824;SDS011;16713;52.916;12.834;2023-04-25T11:49:11;11.35;;;2.72;;
29824;SDS011;16713;52.916;12.834;2023-04-25T11:51:39;11.35;;;2.88;;
29824;SDS011;16713;52.916;12.834;2023-04-25T11:54:09;9.70;;;2.60;;
29824;SDS011;16713;52.916;12.834;2023-04-25T11:56:36;8.85;;;3.35;;
29824;SDS011;16713;52.916;12.834;2023-04-25T11:59:04;10.35;;;2.85;;
29824;SDS011;16713;52.916;12.834;2023-04-25T12:01:34;11.45;;;2.65;;
29824;SDS011;16713;52.916;12.834;2023-04-25T12:04:15;13.32;;;3.95;;
29824;SDS011;16713;52.916;12.834;2023-04-25T12:06:43;10.52;;;2.88;;
29824;SDS011;16713;52.916;12.834;2023-04-25T12:09:14;11.00;;;2.45;;
29824;SDS011;16713;52.916;12.834;2023-04-25T12:11:45;11.98;;;2.58;;
29824;SDS011;16713;52.916;12.834;2023-04-25T12:14:22;13.73;;;2.70;;
29824;SDS011;16713;52.916;12.834;2023-04-25T12:17:01;11.93;;;2.40;;
29824;SDS011;16713;52.916;12.834;2023-04-25T12:19:33;13.43;;;3.08;;
29824;SDS011;16713;52.916;12.834;2023-04-25T12:22:01;15.40;;;3.25;;
29824;SDS011;16713;52.916;12.834;2023-04-25T12:24:33;11.57;;;2.58;;
29824;SDS011;16713;52.916;12.834;2023-04-25T12:27:05;9.63;;;2.78;;
29824;SDS011;16713;52.916;12.834;2023-04-25T12:29:34;10.68;;;2.63;;
29824;SDS011;16713;52.916;12.834;2023-04-25T12:32:15;15.57;;;2.78;;
29824;SDS011;16713;52.916;12.834;2023-04-25T12:34:42;9.73;;;2.35;;
29824;SDS011;16713;52.916;12.834;2023-04-25T12:37:08;7.35;;;2.00;;
29824;SDS011;16713;52.916;12.834;2023-04-25T12:39:35;12.02;;;2.80;;
29824;SDS011;16713;52.916;12.834;2023-04-25T12:42:01;15.50;;;3.70;;
29824;SDS011;16713;52.916;12.834;2023-04-25T12:44:30;11.43;;;2.90;;
29824;SDS011;16713;52.916;12.834;2023-04-25T12:46:56;7.72;;;2.10;;
29824;SDS011;16713;52.916;12.834;2023-04-25T12:49:23;10.88;;;3.20;;
29824;SDS011;16713;52.916;12.834;2023-04-25T12:51:49;11.50;;;2.53;;
29824;SDS011;16713;52.916;12.834;2023-04-25T12:54:17;11.35;;;3.10;;
29824;SDS011;16713;52.916;12.834;2023-04-25T12:56:44;10.15;;;2.50;;
29824;SDS011;16713;52.916;12.834;2023-04-25T12:59:10;13.95;;;2.75;;
29824;SDS011;16713;52.916;12.834;2023-04-25T13:01:37;12.48;;;2.53;;
29824;SDS011;16713;52.916;12.834;2023-04-25T13:04:03;9.05;;;2.17;;
29824;SDS011;16713;52.916;12.834;2023-04-25T13:06:30;13.07;;;2.70;;
29824;SDS011;16713;52.916;12.834;2023-04-25T13:08:57;11.93;;;3.20;;
29824;SDS011;16713;52.916;12.834;2023-04-25T13:11:23;13.02;;;3.17;;
29824;SDS011;16713;52.916;12.834;2023-04-25T13:13:50;14.93;;;3.10;;
29824;SDS011;16713;52.916;12.834;2023-04-25T13:16:17;10.27;;;2.63;;
29824;SDS011;16713;52.916;12.834;2023-04-25T13:18:47;13.35;;;2.95;;
29824;SDS011;16713;52.916;12.834;2023-04-25T13:21:13;13.23;;;2.80;;
29824;SDS011;16713;52.916;12.834;2023-04-25T13:23:40;6.47;;;2.03;;
29824;SDS011;16713;52.916;12.834;2023-04-25T13:26:08;11.82;;;2.78;;
29824;SDS011;16713;52.916;12.834;2023-04-25T13:28:35;7.35;;;2.38;;
29824;SDS011;16713;52.916;12.834;2023-04-25T13:31:01;9.18;;;2.20;;
29824;SDS011;16713;52.916;12.834;2023-04-25T13:33:28;9.15;;;3.00;;
29824;SDS011;16713;52.916;12.834;2023-04-25T13:35:55;4.70;;;2.15;;
29824;SDS011;16713;52.916;12.834;2023-04-25T13:38:23;5.95;;;2.28;;
29824;SDS011;16713;52.916;12.834;2023-04-25T13:40:51;7.03;;;2.60;;
29824;SDS011;16713;52.916;12.834;2023-04-25T13:43:21;11.43;;;2.67;;
29824;SDS011;16713;52.916;12.834;2023-04-25T13:45:49;12.38;;;2.53;;
29824;SDS011;16713;52.916;12.834;2023-04-25T13:48:16;6.47;;;2.20;;
29824;SDS011;16713;52.916;12.834;2023-04-25T13:50:43;6.88;;;2.17;;
29824;SDS011;16713;52.916;12.834;2023-04-25T13:53:10;5.97;;;1.83;;
29824;SDS011;16713;52.916;12.834;2023-04-25T13:55:36;8.70;;;2.78;;
29824;SDS011;16713;52.916;12.834;2023-04-25T13:58:03;8.75;;;1.83;;
29824;SDS011;16713;52.916;12.834;2023-04-25T14:00:34;9.15;;;2.10;;
29824;SDS011;16713;52.916;12.834;2023-04-25T14:03:04;6.95;;;1.90;;
29824;SDS011;16713;52.916;12.834;2023-04-25T14:05:34;9.13;;;2.13;;
29824;SDS011;16713;52.916;12.834;2023-04-25T14:08:05;9.80;;;1.77;;
29824;SDS011;16713;52.916;12.834;2023-04-25T14:10:33;8.10;;;1.10;;
29824;SDS011;16713;52.916;12.834;2023-04-25T14:13:01;4.93;;;1.20;;
29824;SDS011;16713;52.916;12.834;2023-04-25T14:15:30;3.70;;;1.40;;
29824;SDS011;16713;52.916;12.834;2023-04-25T14:17:58;7.43;;;1.45;;
29824;SDS011;16713;52.916;12.834;2023-04-25T14:20:26;8.40;;;1.45;;
29824;SDS011;16713;52.916;12.834;2023-04-25T14:22:53;5.28;;;1.15;;
29824;SDS011;16713;52.916;12.834;2023-04-25T14:25:20;4.07;;;1.52;;
29824;SDS011;16713;52.916;12.834;2023-04-25T14:27:47;6.65;;;1.60;;
29824;SDS011;16713;52.916;12.834;2023-04-25T14:30:16;3.42;;;1.20;;
29824;SDS011;16713;52.916;12.834;2023-04-25T14:32:44;5.78;;;1.45;;
29824;SDS011;16713;52.916;12.834;2023-04-25T14:35:11;9.73;;;2.15;;
29824;SDS011;16713;52.916;12.834;2023-04-25T14:37:38;7.47;;;1.33;;
29824;SDS011;16713;52.916;12.834;2023-04-25T14:40:05;8.70;;;1.50;;